createdAt,value
2017-08-05T00:00:49.079Z,17.00
2017-08-05T00:03:15.373Z,17.00
2017-08-05T00:05:41.669Z,16.90
2017-08-05T00:08:07.988Z,16.90
2017-08-05T00:10:34.289Z,16.90
2017-08-05T00:13:00.621Z,16.90
2017-08-05T00:15:26.928Z,16.80
2017-08-05T00:17:53.236Z,17.00
2017-08-05T00:20:20.281Z,17.10
2017-08-05T00:22:46.610Z,17.00
2017-08-05T00:25:12.894Z,17.10
2017-08-05T00:27:39.188Z,17.00
2017-08-05T00:30:05.473Z,17.00
2017-08-05T00:32:31.808Z,17.10
2017-08-05T00:34:58.104Z,17.10
2017-08-05T00:37:24.408Z,17.10
2017-08-05T00:39:50.789Z,17.10
2017-08-05T00:42:17.057Z,17.10
2017-08-05T00:44:44.117Z,17.10
2017-08-05T00:47:10.463Z,17.10
2017-08-05T00:49:36.751Z,17.00
2017-08-05T00:52:03.837Z,17.00
2017-08-05T00:54:30.224Z,17.00
2017-08-05T00:56:56.608Z,17.00
2017-08-05T00:59:22.891Z,17.00
2017-08-05T01:01:49.979Z,16.80
2017-08-05T01:04:16.281Z,16.80
2017-08-05T01:06:43.300Z,16.70
2017-08-05T01:09:09.609Z,16.70
2017-08-05T01:11:35.951Z,16.60
2017-08-05T01:14:02.444Z,16.60
2017-08-05T01:16:28.772Z,16.60
2017-08-05T01:18:55.064Z,16.60
2017-08-05T01:21:22.139Z,16.60
2017-08-05T01:23:48.475Z,16.60
2017-08-05T01:26:14.760Z,16.60
2017-08-05T01:28:41.838Z,16.80
2017-08-05T01:31:08.196Z,16.80
2017-08-05T01:33:34.484Z,16.90
2017-08-05T01:36:01.543Z,16.90
2017-08-05T01:38:28.555Z,17.00
2017-08-05T01:40:54.851Z,16.90
2017-08-05T01:43:21.167Z,17.00
2017-08-05T01:45:47.454Z,17.10
2017-08-05T01:48:13.769Z,17.20
2017-08-05T01:50:40.044Z,17.20
2017-08-05T01:53:06.365Z,17.30
2017-08-05T01:55:33.441Z,17.40
2017-08-05T01:57:59.727Z,17.30
2017-08-05T02:00:26.059Z,17.30
2017-08-05T02:02:53.126Z,17.40
2017-08-05T02:05:19.412Z,17.40
2017-08-05T02:07:45.748Z,17.40
2017-08-05T02:10:12.032Z,17.40
2017-08-05T02:12:38.347Z,17.50
2017-08-05T02:15:04.681Z,17.50
2017-08-05T02:17:30.959Z,17.50
2017-08-05T02:19:57.276Z,17.60
2017-08-05T02:22:23.554Z,17.60
2017-08-05T02:24:50.551Z,17.60
2017-08-05T02:27:16.879Z,17.60
2017-08-05T02:29:43.152Z,17.60
2017-08-05T02:32:09.490Z,17.60
2017-08-05T02:34:35.965Z,17.70
2017-08-05T02:37:02.536Z,17.70
2017-08-05T02:39:34.840Z,17.80
2017-08-05T02:42:01.116Z,17.80
2017-08-05T02:44:27.401Z,17.90
2017-08-05T02:46:53.732Z,17.90
2017-08-05T02:49:19.993Z,18.00
2017-08-05T02:51:46.327Z,18.00
2017-08-05T02:54:12.608Z,18.00
2017-08-05T02:56:39.621Z,18.00
2017-08-05T02:59:05.948Z,18.00
2017-08-05T03:01:32.404Z,18.00
2017-08-05T03:03:59.449Z,18.00
2017-08-05T03:06:25.724Z,18.00
2017-08-05T03:08:52.012Z,18.10
2017-08-05T03:11:19.059Z,18.10
2017-08-05T03:13:46.111Z,18.10
2017-08-05T03:16:13.178Z,18.10
2017-08-05T03:18:39.627Z,18.00
2017-08-05T03:21:05.942Z,18.00
2017-08-05T03:23:32.379Z,17.90
2017-08-05T03:25:58.674Z,17.80
2017-08-05T03:28:25.741Z,17.70
2017-08-05T03:30:52.757Z,17.70
2017-08-05T03:33:19.822Z,17.70
2017-08-05T03:35:46.151Z,17.70
2017-08-05T03:38:12.451Z,17.80
2017-08-05T03:40:38.740Z,17.90
2017-08-05T03:43:05.044Z,17.90
2017-08-05T03:45:31.376Z,18.00
2017-08-05T03:47:58.512Z,18.10
2017-08-05T03:50:24.845Z,18.20
2017-08-05T03:52:51.140Z,18.10
2017-08-05T03:55:17.415Z,18.00
2017-08-05T03:57:44.589Z,17.70
2017-08-05T04:00:10.921Z,17.70
2017-08-05T04:02:37.188Z,17.60
2017-08-05T04:05:03.506Z,17.60
2017-08-05T04:07:29.855Z,17.60
2017-08-05T04:09:56.216Z,17.60
2017-08-05T04:12:22.542Z,17.70
2017-08-05T04:14:49.555Z,17.90
2017-08-05T04:17:15.848Z,17.90
2017-08-05T04:19:42.188Z,18.00
2017-08-05T04:22:08.496Z,18.10
2017-08-05T04:24:34.771Z,18.10
2017-08-05T04:27:01.071Z,18.20
2017-08-05T04:29:27.338Z,18.20
2017-08-05T04:31:53.655Z,18.20
2017-08-05T04:34:19.968Z,18.30
2017-08-05T04:36:46.271Z,18.30
2017-08-05T04:39:12.589Z,18.30
2017-08-05T04:41:38.902Z,18.30
2017-08-05T04:44:05.200Z,18.40
2017-08-05T04:46:31.528Z,18.40
2017-08-05T04:48:57.855Z,18.50
2017-08-05T04:51:24.138Z,18.70
2017-08-05T04:53:50.455Z,19.10
2017-08-05T04:56:17.468Z,19.60
2017-08-05T04:58:43.808Z,19.60
2017-08-05T05:01:10.221Z,20.20
2017-08-05T05:03:36.713Z,21.50
2017-08-05T05:06:03.792Z,24.60
2017-08-05T05:08:30.244Z,24.50
2017-08-05T05:10:56.572Z,26.20
2017-08-05T05:13:22.884Z,27.50
2017-08-05T05:18:27.872Z,28.40
2017-08-05T05:20:54.187Z,30.30
2017-08-05T05:23:20.507Z,30.50
2017-08-05T05:25:46.786Z,31.20
2017-08-05T05:28:13.868Z,33.50
2017-08-05T05:30:40.188Z,33.50
2017-08-05T05:33:06.517Z,34.00
2017-08-05T05:35:32.811Z,32.90
2017-08-05T05:37:59.857Z,30.50
2017-08-05T05:40:26.904Z,31.00
2017-08-05T05:42:53.933Z,32.30
2017-08-05T05:45:20.260Z,32.20
2017-08-05T05:47:46.572Z,32.90
2017-08-05T05:50:12.879Z,32.70
2017-08-05T05:52:39.156Z,32.00
2017-08-05T05:55:05.620Z,30.80
2017-08-05T05:57:32.708Z,29.10
2017-08-05T05:59:58.992Z,29.00
2017-08-05T06:02:26.037Z,27.90
2017-08-05T06:04:53.066Z,27.20
2017-08-05T06:07:19.367Z,27.20
2017-08-05T06:09:45.700Z,26.70
2017-08-05T06:12:12.094Z,26.20
2017-08-05T06:14:38.625Z,25.90
2017-08-05T06:17:04.982Z,25.80
2017-08-05T06:19:31.288Z,25.80
2017-08-05T06:21:57.603Z,25.90
2017-08-05T06:24:23.883Z,26.20
2017-08-05T06:26:50.219Z,26.80
2017-08-05T06:29:16.512Z,26.70
2017-08-05T06:31:42.812Z,26.40
2017-08-05T06:34:09.883Z,25.70
2017-08-05T06:36:36.434Z,25.70
2017-08-05T06:39:02.751Z,25.70
2017-08-05T06:41:29.044Z,25.70
2017-08-05T06:43:55.375Z,25.70
2017-08-05T06:46:21.726Z,25.80
2017-08-05T06:48:48.779Z,25.80
2017-08-05T06:51:15.206Z,25.80
2017-08-05T06:53:41.545Z,25.70
2017-08-05T06:56:07.850Z,25.80
2017-08-05T06:58:34.900Z,28.40
2017-08-05T07:01:01.212Z,28.30
2017-08-05T07:03:27.538Z,30.20
2017-08-05T07:05:53.813Z,31.10
2017-08-05T07:08:20.128Z,31.40
2017-08-05T07:10:47.202Z,32.90
2017-08-05T07:13:13.516Z,32.90
2017-08-05T07:15:39.987Z,34.80
2017-08-05T07:18:06.296Z,35.30
2017-08-05T07:20:32.615Z,34.90
2017-08-05T07:22:58.897Z,34.70
2017-08-05T07:25:25.187Z,35.80
2017-08-05T07:27:51.589Z,38.20
2017-08-05T07:30:18.639Z,39.80
2017-08-05T07:32:45.739Z,41.40
2017-08-05T07:35:12.037Z,41.40
2017-08-05T07:37:38.376Z,43.40
2017-08-05T07:40:04.912Z,45.30
2017-08-05T07:42:31.265Z,46.00
2017-08-05T07:44:57.584Z,46.40
2017-08-05T07:47:23.923Z,46.60
2017-08-05T07:49:50.224Z,46.70
2017-08-05T07:52:16.513Z,45.40
2017-08-05T07:54:42.857Z,43.80
2017-08-05T07:57:09.892Z,40.50
2017-08-05T07:59:36.195Z,40.40
2017-08-05T08:02:02.517Z,39.80
2017-08-05T08:04:28.891Z,39.80
2017-08-05T08:06:55.920Z,39.10
2017-08-05T08:09:22.259Z,39.10
2017-08-05T08:11:48.576Z,37.60
2017-08-05T08:14:15.620Z,37.60
2017-08-05T08:16:42.005Z,37.50
2017-08-05T08:19:08.308Z,38.50
2017-08-05T08:21:35.348Z,41.40
2017-08-05T08:24:02.384Z,43.30
2017-08-05T08:26:29.413Z,44.80
2017-08-05T08:28:55.787Z,44.80
2017-08-05T08:31:22.927Z,44.40
2017-08-05T08:33:49.960Z,43.60
2017-08-05T08:36:16.268Z,43.50
2017-08-05T08:38:42.601Z,42.20
2017-08-05T08:41:08.887Z,41.00
2017-08-05T08:43:35.172Z,39.50
2017-08-05T08:46:01.481Z,37.90
2017-08-05T08:48:27.806Z,37.10
2017-08-05T08:50:54.369Z,37.20
2017-08-05T08:53:21.435Z,36.50
2017-08-05T08:55:48.574Z,35.80
2017-08-05T08:58:15.627Z,35.40
2017-08-05T09:00:42.649Z,35.20
2017-08-05T09:03:08.951Z,35.20
2017-08-05T09:05:35.270Z,35.00
2017-08-05T09:08:01.705Z,35.50
2017-08-05T09:10:28.001Z,36.90
2017-08-05T09:12:55.029Z,41.90
2017-08-05T09:15:21.359Z,41.90
2017-08-05T09:17:47.703Z,43.50
2017-08-05T09:20:14.776Z,44.90
2017-08-05T09:22:41.072Z,44.90
2017-08-05T09:25:07.379Z,43.60
2017-08-05T09:27:33.664Z,42.00
2017-08-05T09:30:00.000Z,41.60
2017-08-05T09:32:26.468Z,41.30
2017-08-05T09:34:52.742Z,40.20
2017-08-05T09:37:19.095Z,39.00
2017-08-05T09:39:45.384Z,38.40
2017-08-05T09:42:12.436Z,36.40
2017-08-05T09:44:39.500Z,36.20
2017-08-05T09:47:05.840Z,36.10
2017-08-05T09:49:32.149Z,35.70
2017-08-05T09:51:59.202Z,34.20
2017-08-05T09:54:26.343Z,34.20
2017-08-05T09:56:53.452Z,33.90
2017-08-05T09:59:19.778Z,33.80
2017-08-05T10:01:46.145Z,33.40
2017-08-05T10:04:12.619Z,32.50
2017-08-05T10:06:38.933Z,31.60
2017-08-05T10:09:05.209Z,30.90
2017-08-05T10:11:31.516Z,30.10
2017-08-05T10:13:57.880Z,29.60
2017-08-05T10:16:24.241Z,29.00
2017-08-05T10:18:51.286Z,28.30
2017-08-05T10:21:17.555Z,28.20
2017-08-05T10:23:43.896Z,28.30
2017-08-05T10:26:10.236Z,28.10
2017-08-05T10:28:36.548Z,28.00
2017-08-05T10:31:02.856Z,28.00
2017-08-05T10:33:29.135Z,28.10
2017-08-05T10:35:55.528Z,28.20
2017-08-05T10:38:28.700Z,28.30
2017-08-05T10:40:55.017Z,28.40
2017-08-05T10:43:21.328Z,28.70
2017-08-05T10:45:47.640Z,28.80
2017-08-05T10:48:14.016Z,29.00
2017-08-05T10:50:40.323Z,29.10
2017-08-05T10:53:06.607Z,29.50
2017-08-05T10:55:32.974Z,29.80
2017-08-05T10:57:59.273Z,30.00
2017-08-05T11:00:25.601Z,30.00
2017-08-05T11:02:51.913Z,30.10
2017-08-05T11:05:18.236Z,30.20
2017-08-05T11:07:44.536Z,30.20
2017-08-05T11:10:11.613Z,30.60
2017-08-05T11:12:37.920Z,30.60
2017-08-05T11:15:04.238Z,31.00
2017-08-05T11:17:30.548Z,31.40
2017-08-05T11:19:56.845Z,31.60
2017-08-05T11:22:23.163Z,31.60
2017-08-05T11:24:49.652Z,31.30
2017-08-05T11:27:15.985Z,30.90
2017-08-05T11:29:42.320Z,30.40
2017-08-05T11:32:09.394Z,29.60
2017-08-05T11:34:35.696Z,29.60
2017-08-05T11:37:02.016Z,29.80
2017-08-05T11:39:28.380Z,30.00
2017-08-05T11:41:55.400Z,29.70
2017-08-05T11:44:22.585Z,29.50
2017-08-05T11:46:48.899Z,29.50
2017-08-05T11:49:15.266Z,29.40
2017-08-05T11:51:41.594Z,29.40
2017-08-05T11:54:07.963Z,29.60
2017-08-05T11:56:34.276Z,29.80
2017-08-05T11:59:00.576Z,29.80
2017-08-05T12:01:26.973Z,29.50
2017-08-05T12:03:53.292Z,29.20
2017-08-05T12:06:19.703Z,28.80
2017-08-05T12:08:46.164Z,28.50
2017-08-05T12:11:12.712Z,28.20
2017-08-05T12:13:39.045Z,27.90
2017-08-05T12:16:05.345Z,27.80
2017-08-05T12:18:31.690Z,27.60
2017-08-05T12:20:58.036Z,27.60
2017-08-05T12:23:24.340Z,27.70
2017-08-05T12:25:50.672Z,27.70
2017-08-05T12:28:17.775Z,27.70
2017-08-05T12:30:44.130Z,27.70
2017-08-05T12:33:10.712Z,27.80
2017-08-05T12:35:37.060Z,27.90
2017-08-05T12:38:03.367Z,27.90
2017-08-05T12:40:29.732Z,28.20
2017-08-05T12:42:56.087Z,28.30
2017-08-05T12:45:22.589Z,28.50
2017-08-05T12:47:48.881Z,28.50
2017-08-05T12:50:16.089Z,28.90
2017-08-05T12:52:42.398Z,28.90
2017-08-05T12:55:08.704Z,28.80
2017-08-05T12:57:35.916Z,28.40
2017-08-05T13:00:02.344Z,28.30
2017-08-05T13:02:28.736Z,27.90
2017-08-05T13:04:55.032Z,27.50
2017-08-05T13:07:21.352Z,27.00
2017-08-05T13:09:47.671Z,26.40
2017-08-05T13:12:14.068Z,25.70
2017-08-05T13:14:40.390Z,25.10
2017-08-05T13:17:06.635Z,24.70
2017-08-05T13:19:32.936Z,24.30
2017-08-05T13:21:59.229Z,24.20
2017-08-05T13:24:25.550Z,24.00
2017-08-05T13:26:51.856Z,24.10
2017-08-05T13:29:18.156Z,24.50
2017-08-05T13:31:44.493Z,24.90
2017-08-05T13:34:10.820Z,25.30
2017-08-05T13:36:37.121Z,25.40
2017-08-05T13:39:03.460Z,25.40
2017-08-05T13:41:30.584Z,25.60
2017-08-05T13:43:56.907Z,25.60
2017-08-05T13:46:23.319Z,26.10
2017-08-05T13:48:49.726Z,26.40
2017-08-05T13:51:16.068Z,26.90
2017-08-05T13:53:42.393Z,27.40
2017-08-05T13:56:08.691Z,27.90
2017-08-05T13:58:35.761Z,28.40
2017-08-05T14:01:02.074Z,28.40
2017-08-05T14:03:28.384Z,28.60
2017-08-05T14:05:55.473Z,28.80
2017-08-05T14:08:21.787Z,28.80
2017-08-05T14:10:48.834Z,28.30
2017-08-05T14:13:15.936Z,28.00
2017-08-05T14:15:42.283Z,28.00
2017-08-05T14:18:08.675Z,27.80
2017-08-05T14:20:34.984Z,27.60
2017-08-05T14:23:01.322Z,27.50
2017-08-05T14:25:27.665Z,27.50
2017-08-05T14:27:53.984Z,27.20
2017-08-05T14:30:20.309Z,27.00
2017-08-05T14:32:46.641Z,26.90
2017-08-05T14:35:12.976Z,26.80
2017-08-05T14:37:39.317Z,26.80
2017-08-05T14:40:05.656Z,26.90
2017-08-05T14:42:31.984Z,26.90
2017-08-05T14:44:58.281Z,26.80
2017-08-05T14:47:25.304Z,26.90
2017-08-05T14:49:51.660Z,26.90
2017-08-05T14:52:17.948Z,26.90
2017-08-05T14:54:44.294Z,27.00
2017-08-05T14:57:10.612Z,27.00
2017-08-05T14:59:36.889Z,27.10
2017-08-05T15:02:03.192Z,27.10
2017-08-05T15:04:29.492Z,27.20
2017-08-05T15:06:55.819Z,27.10
2017-08-05T15:09:22.281Z,27.10
2017-08-05T15:11:48.592Z,27.10
2017-08-05T15:14:14.888Z,27.10
2017-08-05T15:16:41.208Z,27.10
2017-08-05T15:19:07.753Z,26.90
2017-08-05T15:21:34.277Z,26.80
2017-08-05T15:24:00.588Z,26.80
2017-08-05T15:26:26.900Z,26.70
2017-08-05T15:28:54.005Z,26.90
2017-08-05T15:31:20.539Z,26.80
2017-08-05T15:33:46.854Z,27.00
2017-08-05T15:36:13.165Z,27.00
2017-08-05T15:38:39.468Z,27.10
2017-08-05T15:41:05.808Z,27.20
2017-08-05T15:43:32.130Z,27.30
2017-08-05T15:45:59.199Z,27.10
2017-08-05T15:48:25.483Z,27.10
2017-08-05T15:50:51.797Z,27.00
2017-08-05T15:53:18.115Z,26.80
2017-08-05T15:55:44.541Z,26.60
2017-08-05T15:58:10.832Z,26.50
2017-08-05T16:00:39.320Z,26.30
2017-08-05T16:03:05.655Z,26.20
2017-08-05T16:05:32.140Z,26.20
2017-08-05T16:07:58.462Z,26.20
2017-08-05T16:10:24.861Z,26.10
2017-08-05T16:12:51.166Z,26.10
2017-08-05T16:15:18.313Z,25.90
2017-08-05T16:17:45.346Z,25.90
2017-08-05T16:20:11.869Z,25.90
2017-08-05T16:22:38.377Z,25.90
2017-08-05T16:25:05.411Z,26.00
2017-08-05T16:27:31.887Z,25.90
2017-08-05T16:29:58.197Z,26.00
2017-08-05T16:32:24.719Z,25.90
2017-08-05T16:34:51.035Z,25.90
2017-08-05T16:37:17.312Z,25.80
2017-08-05T16:39:43.657Z,25.80
2017-08-05T16:42:09.976Z,25.70
2017-08-05T16:44:37.070Z,25.60
2017-08-05T16:47:03.404Z,25.50
2017-08-05T16:49:29.714Z,25.50
2017-08-05T16:51:56.781Z,25.10
2017-08-05T16:54:23.109Z,25.10
2017-08-05T16:56:49.468Z,25.00
2017-08-05T16:59:15.835Z,24.80
2017-08-05T17:01:42.169Z,24.70
2017-08-05T17:04:08.623Z,24.50
2017-08-05T17:06:34.947Z,24.40
2017-08-05T17:09:01.294Z,24.30
2017-08-05T17:11:27.624Z,24.10
2017-08-05T17:13:53.922Z,24.00
2017-08-05T17:16:20.203Z,24.00
2017-08-05T17:18:46.500Z,23.80
2017-08-05T17:21:12.775Z,23.70
2017-08-05T17:23:39.057Z,23.60
2017-08-05T17:26:05.416Z,23.60
2017-08-05T17:28:38.876Z,23.40
2017-08-05T17:31:05.914Z,23.20
2017-08-05T17:33:32.967Z,23.20
2017-08-05T17:36:00.080Z,23.10
2017-08-05T17:38:26.395Z,23.10
2017-08-05T17:40:52.776Z,23.00
2017-08-05T17:43:19.807Z,22.80
2017-08-05T17:45:46.885Z,22.80
2017-08-05T17:48:13.195Z,22.80
2017-08-05T17:50:40.352Z,22.60
2017-08-05T17:53:06.675Z,22.60
2017-08-05T17:55:33.003Z,22.70
2017-08-05T17:58:00.021Z,22.60
2017-08-05T18:00:26.321Z,22.60
2017-08-05T18:02:52.619Z,22.60
2017-08-05T18:05:19.672Z,22.20
2017-08-05T18:07:45.999Z,22.20
2017-08-05T18:10:13.120Z,21.90
2017-08-05T18:12:39.579Z,21.80
2017-08-05T18:15:06.781Z,21.60
2017-08-05T18:17:33.092Z,21.60
2017-08-05T18:19:59.396Z,21.50
2017-08-05T18:22:26.473Z,21.40
2017-08-05T18:24:52.771Z,21.40
2017-08-05T18:27:19.959Z,21.20
2017-08-05T18:29:46.322Z,21.10
2017-08-05T18:32:12.640Z,21.20
2017-08-05T18:34:38.964Z,21.10
2017-08-05T18:37:05.268Z,21.30
2017-08-05T18:39:31.581Z,21.10
2017-08-05T18:41:57.879Z,21.00
2017-08-05T18:44:25.197Z,20.80
2017-08-05T18:46:51.528Z,20.80
2017-08-05T18:49:17.845Z,20.70
2017-08-05T18:51:44.330Z,20.70
2017-08-05T18:54:10.632Z,20.70
2017-08-05T18:56:36.920Z,20.60
2017-08-05T18:59:03.228Z,20.50
2017-08-05T19:01:30.292Z,20.20
2017-08-05T19:03:56.601Z,20.20
2017-08-05T19:06:23.621Z,20.00
2017-08-05T19:08:49.977Z,20.00
2017-08-05T19:11:17.029Z,19.90
2017-08-05T19:13:44.121Z,19.90
2017-08-05T19:16:10.584Z,19.90
2017-08-05T19:18:36.904Z,19.90
2017-08-05T19:21:03.197Z,19.80
2017-08-05T19:23:29.500Z,19.70
2017-08-05T19:25:56.566Z,19.70
2017-08-05T19:28:22.881Z,19.60
2017-08-05T19:30:49.979Z,19.70
2017-08-05T19:33:16.586Z,19.60
2017-08-05T19:35:42.893Z,19.60
2017-08-05T19:38:10.076Z,19.70
2017-08-05T19:40:36.400Z,19.70
2017-08-05T19:43:02.693Z,19.60
2017-08-05T19:45:29.137Z,19.50
2017-08-05T19:47:56.216Z,19.40
2017-08-05T19:50:22.609Z,19.40
2017-08-05T19:52:49.701Z,19.30
2017-08-05T19:55:16.008Z,19.30
2017-08-05T19:57:42.340Z,19.20
2017-08-05T20:00:08.632Z,19.00
2017-08-05T20:02:34.971Z,19.00
2017-08-05T20:05:02.169Z,19.10
2017-08-05T20:07:28.535Z,19.10
2017-08-05T20:09:54.860Z,19.10
2017-08-05T20:12:21.171Z,19.10
2017-08-05T20:14:47.511Z,19.30
2017-08-05T20:17:13.816Z,19.40
2017-08-05T20:19:40.305Z,19.50
2017-08-05T20:22:06.909Z,19.50
2017-08-05T20:24:33.208Z,19.50
2017-08-05T20:26:59.556Z,19.50
2017-08-05T20:29:25.861Z,19.50
2017-08-05T20:31:52.180Z,19.60
2017-08-05T20:34:19.218Z,19.70
2017-08-05T20:36:45.579Z,19.60
2017-08-05T20:39:11.897Z,19.70
2017-08-05T20:41:38.259Z,19.70
2017-08-05T20:44:04.575Z,19.70
2017-08-05T20:46:30.955Z,19.70
2017-08-05T20:48:58.210Z,19.70
2017-08-05T20:51:24.547Z,19.60
2017-08-05T20:53:51.669Z,19.70
2017-08-05T20:56:17.949Z,19.70
2017-08-05T20:58:44.253Z,19.70
2017-08-05T21:01:11.307Z,19.70
2017-08-05T21:03:38.433Z,19.70
2017-08-05T21:06:04.779Z,19.70
2017-08-05T21:08:31.085Z,19.70
2017-08-05T21:10:57.383Z,19.60
2017-08-05T21:13:23.708Z,19.70
2017-08-05T21:15:50.018Z,19.80
2017-08-05T21:18:17.244Z,19.70
2017-08-05T21:20:43.532Z,19.70
2017-08-05T21:23:09.872Z,19.70
2017-08-05T21:25:36.225Z,19.60
2017-08-05T21:28:02.491Z,19.60
2017-08-05T21:30:28.816Z,19.60
2017-08-05T21:32:55.843Z,19.50
2017-08-05T21:35:22.523Z,19.50
2017-08-05T21:37:48.844Z,19.40
2017-08-05T21:40:15.180Z,19.40
2017-08-05T21:42:41.471Z,19.20
2017-08-05T21:45:08.000Z,19.00
2017-08-05T21:47:34.347Z,18.80
2017-08-05T21:50:01.431Z,18.50
2017-08-05T21:52:27.976Z,18.50
2017-08-05T21:54:54.385Z,18.30
2017-08-05T21:57:20.678Z,18.10
2017-08-05T21:59:46.982Z,18.00
2017-08-05T22:02:13.294Z,17.80
2017-08-05T22:04:39.569Z,17.60
2017-08-05T22:07:05.872Z,17.50
2017-08-05T22:09:32.191Z,17.40
2017-08-05T22:11:58.519Z,17.40
2017-08-05T22:14:24.893Z,17.30
2017-08-05T22:16:51.204Z,17.20
2017-08-05T22:19:17.488Z,17.00
2017-08-05T22:21:43.749Z,16.90
2017-08-05T22:24:10.063Z,16.80
2017-08-05T22:26:36.424Z,16.70
2017-08-05T22:29:02.825Z,16.70
2017-08-05T22:31:29.255Z,16.60
2017-08-05T22:33:55.588Z,16.70
2017-08-05T22:36:21.892Z,16.70
2017-08-05T22:38:48.216Z,16.50
2017-08-05T22:41:15.272Z,16.30
2017-08-05T22:43:41.683Z,16.30
2017-08-05T22:46:08.884Z,16.10
2017-08-05T22:48:35.164Z,16.10
2017-08-05T22:51:01.523Z,16.10
2017-08-05T22:53:27.824Z,16.10
2017-08-05T22:55:55.111Z,16.10
2017-08-05T22:58:21.431Z,16.10
2017-08-05T23:00:47.712Z,16.10
2017-08-05T23:03:14.041Z,16.10
2017-08-05T23:05:41.067Z,16.20
2017-08-05T23:08:07.396Z,16.20
2017-08-05T23:10:33.728Z,16.20
2017-08-05T23:13:00.016Z,16.30
2017-08-05T23:15:26.361Z,16.30
2017-08-05T23:17:52.727Z,16.30
2017-08-05T23:20:19.051Z,16.30
2017-08-05T23:22:45.387Z,16.20
2017-08-05T23:25:11.704Z,16.00
2017-08-05T23:27:38.023Z,15.90
2017-08-05T23:30:04.345Z,15.90
2017-08-05T23:32:30.648Z,15.90
2017-08-05T23:34:57.695Z,15.80
2017-08-05T23:37:24.748Z,15.70
2017-08-05T23:39:51.065Z,15.70
2017-08-05T23:42:18.123Z,15.70
2017-08-05T23:44:45.175Z,15.60
2017-08-05T23:47:11.452Z,15.60
2017-08-05T23:49:37.876Z,15.50
2017-08-05T23:52:04.293Z,15.50
2017-08-05T23:54:30.614Z,15.40
2017-08-05T23:56:57.085Z,15.30
2017-08-05T23:59:23.389Z,15.30
